Time;durP1;ratioP1;P1;durP2;ratioP2;P2;SDS_P1;SDS_P2;PMS_P1;PMS_P2;Temp;Humidity;BMP_temperature;BMP_pressure;BME280_temperature;BME280_humidity;BME280_pressure;Samples;Min_cycle;Max_cycle;Signal;HPM_P1;HPM_P2
2022/07/24 00:00:09;;;;;;;4.88;3.38;;;;;;;24.33;48.79;101843.91;5093744;28;20287;-73
2022/07/24 00:02:34;;;;;;;4.57;3.00;;;;;;;24.33;49.09;101846.56;5094251;28;20032;-72
2022/07/24 00:05:01;;;;;;;5.13;3.10;;;;;;;24.29;49.05;101845.16;5094263;28;20027;-72
2022/07/24 00:07:27;;;;;;;4.68;3.00;;;;;;;24.30;48.98;101849.53;5093730;28;20038;-71
2022/07/24 00:09:52;;;;;;;4.80;3.20;;;;;;;24.29;49.08;101843.31;5093820;28;20024;-71
2022/07/24 00:12:18;;;;;;;4.10;2.75;;;;;;;24.28;49.12;101847.00;5094044;28;20132;-71
2022/07/24 00:14:43;;;;;;;4.20;2.75;;;;;;;24.27;48.94;101848.81;5092796;28;20056;-71
2022/07/24 00:17:08;;;;;;;5.35;2.95;;;;;;;24.26;48.79;101840.97;5093943;28;20123;-71
2022/07/24 00:19:34;;;;;;;5.03;3.25;;;;;;;24.25;48.64;101834.78;5093778;28;20020;-72
2022/07/24 00:22:02;;;;;;;5.00;3.40;;;;;;;24.25;48.75;101839.28;5093452;28;20032;-71
2022/07/24 00:24:28;;;;;;;4.97;3.20;;;;;;;24.26;48.63;101835.66;5093817;28;20020;-71
2022/07/24 00:26:53;;;;;;;4.78;3.20;;;;;;;24.26;49.04;101827.66;5092824;28;20020;-71
2022/07/24 00:29:19;;;;;;;5.07;2.97;;;;;;;24.24;48.89;101832.25;5093994;28;20032;-71
2022/07/24 00:31:44;;;;;;;4.53;3.10;;;;;;;24.24;48.75;101835.78;5093575;28;20024;-71
2022/07/24 00:34:11;;;;;;;3.97;2.77;;;;;;;24.22;48.63;101829.75;5093023;28;20035;-71
2022/07/24 00:36:37;;;;;;;4.60;3.03;;;;;;;24.22;48.91;101829.75;5093549;28;20347;-72
2022/07/24 00:39:02;;;;;;;6.40;3.25;;;;;;;24.23;48.70;101833.28;5093510;28;20535;-72
2022/07/24 00:41:30;;;;;;;4.93;3.17;;;;;;;24.22;48.73;101834.25;5092825;28;20514;-71
2022/07/24 00:44:10;;;;;;;4.85;3.35;;;;;;;24.21;48.91;101837.88;5093743;28;20028;-72
2022/07/24 00:46:37;;;;;;;5.03;3.10;;;;;;;24.20;48.62;101831.72;5093348;28;20021;-72
2022/07/24 00:49:05;;;;;;;4.43;3.03;;;;;;;24.20;48.96;101839.72;5092830;28;20028;-72
2022/07/24 00:51:30;;;;;;;5.00;3.38;;;;;;;24.18;48.71;101838.16;5093274;28;20107;-71
2022/07/24 00:53:56;;;;;;;4.90;3.20;;;;;;;24.18;48.87;101832.81;5093231;28;20115;-72
2022/07/24 00:56:21;;;;;;;5.00;3.00;;;;;;;24.19;48.51;101829.19;5092760;28;20028;-72
2022/07/24 00:58:47;;;;;;;4.93;2.97;;;;;;;24.17;48.86;101826.66;5093185;28;20057;-72
2022/07/24 01:01:16;;;;;;;5.18;3.63;;;;;;;24.18;48.79;101839.00;5093302;28;20016;-72
2022/07/24 01:03:41;;;;;;;4.75;3.28;;;;;;;24.17;49.05;101823.19;5092213;28;20032;-71
2022/07/24 01:06:11;;;;;;;4.53;3.00;;;;;;;24.17;49.05;101832.00;5093282;28;20028;-71
2022/07/24 01:08:36;;;;;;;4.72;2.92;;;;;;;24.16;48.78;101826.81;5092846;28;20566;-72
2022/07/24 01:11:03;;;;;;;4.70;3.17;;;;;;;24.19;48.71;101829.19;5092483;28;20111;-71
2022/07/24 01:13:30;;;;;;;4.57;2.90;;;;;;;24.17;48.86;101823.19;5092838;28;20048;-72
2022/07/24 01:15:56;;;;;;;5.30;3.38;;;;;;;24.17;48.84;101817.84;5092993;28;20546;-72
2022/07/24 01:18:21;;;;;;;4.35;2.88;;;;;;;24.17;48.55;101815.19;5092352;28;20016;-72
2022/07/24 01:20:48;;;;;;;4.80;2.87;;;;;;;24.15;48.67;101820.66;5092748;28;20096;-71
2022/07/24 01:23:16;;;;;;;4.88;3.00;;;;;;;24.15;48.87;101809.13;5092044;28;20623;-71
2022/07/24 01:25:42;;;;;;;5.35;3.22;;;;;;;24.14;49.13;101826.94;5092889;28;20382;-72
2022/07/24 01:28:07;;;;;;;4.50;3.03;;;;;;;24.11;48.59;101818.41;5093053;28;20024;-72
2022/07/24 01:30:33;;;;;;;4.32;3.00;;;;;;;24.11;48.69;101826.41;5091709;28;20028;-71
2022/07/24 01:32:58;;;;;;;4.68;3.20;;;;;;;24.09;49.05;101819.38;5092830;28;20028;-72
2022/07/24 01:35:24;;;;;;;4.30;3.08;;;;;;;24.09;48.89;101823.88;5092891;28;20025;-72
2022/07/24 01:37:51;;;;;;;4.28;3.03;;;;;;;24.07;48.68;101823.19;5091718;28;20023;-71
2022/07/24 01:40:16;;;;;;;4.68;2.97;;;;;;;24.08;48.92;101822.19;5092610;28;20103;-71
2022/07/24 01:42:41;;;;;;;4.60;2.87;;;;;;;24.08;48.52;101819.53;5092912;28;20502;-71
2022/07/24 01:45:07;;;;;;;5.00;3.45;;;;;;;24.06;48.59;101814.34;5092205;28;20276;-71
2022/07/24 01:47:33;;;;;;;4.30;2.97;;;;;;;24.08;48.55;101817.72;5092478;28;20414;-71
2022/07/24 01:49:58;;;;;;;4.60;3.13;;;;;;;24.06;48.83;101811.66;5092492;28;20024;-72
2022/07/24 01:52:29;;;;;;;4.67;3.10;;;;;;;24.06;48.69;101810.84;5092098;28;20028;-72
2022/07/24 01:54:54;;;;;;;4.70;3.20;;;;;;;24.05;48.81;101811.81;5092575;28;20752;-71
2022/07/24 01:57:20;;;;;;;4.10;2.80;;;;;;;24.03;48.99;101811.13;5092622;28;20026;-72
2022/07/24 01:59:48;;;;;;;5.25;3.50;;;;;;;24.03;48.82;101813.78;5091493;28;20073;-71
2022/07/24 02:02:14;;;;;;;5.22;3.33;;;;;;;24.01;48.62;101807.78;5092558;28;20043;-72
2022/07/24 02:04:39;;;;;;;5.78;3.67;;;;;;;24.00;49.10;101804.25;5092966;28;20020;-72
2022/07/24 02:07:04;;;;;;;4.47;3.07;;;;;;;24.01;48.89;101807.78;5092036;28;20069;-72
2022/07/24 02:09:30;;;;;;;5.82;3.60;;;;;;;24.02;48.57;101810.28;5092411;28;20276;-71
2022/07/24 02:11:55;;;;;;;4.57;3.30;;;;;;;24.02;48.50;101809.44;5092545;28;20035;-71
2022/07/24 02:14:20;;;;;;;5.85;3.60;;;;;;;24.00;48.97;101809.56;5091465;28;20526;-72
2022/07/24 02:16:52;;;;;;;4.75;3.42;;;;;;;23.99;49.07;101804.38;5092272;28;20023;-72
2022/07/24 02:19:17;;;;;;;4.68;3.40;;;;;;;23.98;49.05;101802.72;5092176;28;20024;-72
2022/07/24 02:21:43;;;;;;;4.97;3.20;;;;;;;23.95;48.59;101803.84;5091722;28;20032;-71
2022/07/24 02:24:08;;;;;;;4.45;3.20;;;;;;;23.94;48.73;101801.31;5092479;28;20028;-71
2022/07/24 02:26:33;;;;;;;4.60;3.10;;;;;;;23.94;48.94;101799.50;5091338;28;20434;-71
2022/07/24 02:28:59;;;;;;;6.00;3.87;;;;;;;23.92;49.21;101795.28;5092697;28;20031;-72
2022/07/24 02:31:24;;;;;;;4.80;3.35;;;;;;;23.93;49.06;101802.31;5092270;28;20273;-72
2022/07/24 02:33:49;;;;;;;5.15;3.47;;;;;;;23.92;48.87;101801.44;5091092;28;20032;-71
2022/07/24 02:36:14;;;;;;;5.27;3.50;;;;;;;23.90;48.96;101801.59;5092485;28;20031;-71
2022/07/24 02:38:41;;;;;;;5.45;3.58;;;;;;;23.90;48.70;101798.94;5092163;28;20267;-71
2022/07/24 02:41:06;;;;;;;5.22;3.53;;;;;;;23.90;49.10;101806.91;5091524;28;20084;-71
2022/07/24 02:43:32;;;;;;;5.10;3.60;;;;;;;23.88;49.18;101800.06;5091863;28;20115;-71
2022/07/24 02:45:57;;;;;;;5.43;3.63;;;;;;;23.88;48.72;101813.38;5092196;28;20012;-71
2022/07/24 02:48:23;;;;;;;5.03;3.40;;;;;;;23.89;48.87;101818.56;5091274;28;20031;-71
2022/07/24 02:50:49;;;;;;;4.63;3.33;;;;;;;23.87;48.70;101823.16;5092209;28;20032;-71
2022/07/24 02:53:14;;;;;;;6.45;3.28;;;;;;;23.86;49.16;101816.19;5095775;28;20103;-71
2022/07/24 02:55:39;;;;;;;5.90;3.37;;;;;;;23.86;48.97;101820.63;5094821;28;20099;-71
2022/07/24 02:58:04;;;;;;;5.33;3.30;;;;;;;23.83;48.89;101821.78;5095734;28;20778;-71
2022/07/24 03:00:30;;;;;;;5.10;3.47;;;;;;;23.83;48.72;101813.78;5095328;28;20299;-70
2022/07/24 03:02:55;;;;;;;5.32;3.50;;;;;;;23.84;49.29;101807.47;5094690;28;20333;-71
2022/07/24 03:05:21;;;;;;;4.93;3.28;;;;;;;23.82;48.83;101812.06;5095713;28;20436;-71
2022/07/24 03:07:46;;;;;;;4.72;3.30;;;;;;;23.83;48.86;101815.56;5095228;28;20498;-70
2022/07/24 03:10:12;;;;;;;4.80;3.50;;;;;;;23.83;48.76;101811.13;5094777;28;20494;-71
2022/07/24 03:12:38;;;;;;;5.22;3.38;;;;;;;23.83;49.25;101800.47;5094330;28;20403;-71
2022/07/24 03:15:04;;;;;;;4.97;3.80;;;;;;;23.83;48.79;101802.25;5095010;28;20127;-71
2022/07/24 03:17:29;;;;;;;5.13;3.53;;;;;;;23.81;49.12;101807.72;5094013;28;20382;-71
2022/07/24 03:19:55;;;;;;;4.90;3.60;;;;;;;23.80;49.06;101807.84;5095277;28;20113;-71
2022/07/24 03:22:20;;;;;;;4.90;3.63;;;;;;;23.80;48.76;101805.19;5094556;28;20035;-71
2022/07/24 03:24:45;;;;;;;6.30;3.30;;;;;;;23.78;49.22;101802.66;5093944;28;20736;-71
2022/07/24 03:27:11;;;;;;;5.30;3.95;;;;;;;23.77;48.89;101795.69;5095340;28;20024;-71
2022/07/24 03:29:36;;;;;;;5.15;3.88;;;;;;;23.78;48.51;101796.50;5094828;28;20028;-71
2022/07/24 03:32:01;;;;;;;5.00;3.85;;;;;;;23.77;49.03;101802.84;5094180;28;20047;-71
2022/07/24 03:34:27;;;;;;;4.60;3.70;;;;;;;23.76;49.22;101804.63;5094810;28;20032;-71
2022/07/24 03:36:55;;;;;;;5.27;4.00;;;;;;;23.75;49.28;101810.97;5093875;28;20024;-70
2022/07/24 03:39:20;;;;;;;6.45;3.60;;;;;;;23.73;49.28;101802.25;5094939;28;20308;-71
2022/07/24 03:41:46;;;;;;;4.82;3.65;;;;;;;23.71;49.09;101802.38;5092250;28;20067;-70
2022/07/24 03:44:11;;;;;;;6.00;4.37;;;;;;;23.71;48.86;101801.56;5093910;28;20153;-70
2022/07/24 03:46:36;;;;;;;5.33;3.67;;;;;;;23.73;48.98;101804.91;5094539;28;20276;-71
2022/07/24 03:49:02;;;;;;;5.80;4.13;;;;;;;23.72;49.31;101795.25;5094634;28;20786;-71
2022/07/24 03:51:27;;;;;;;4.90;4.03;;;;;;;23.73;49.20;101795.13;5093944;28;20023;-70
2022/07/24 03:53:53;;;;;;;5.47;3.97;;;;;;;23.73;49.05;101792.47;5094321;28;20042;-71
2022/07/24 03:56:18;;;;;;;6.13;4.03;;;;;;;23.73;49.08;101794.25;5094505;28;20521;-70
2022/07/24 03:58:44;;;;;;;6.25;4.25;;;;;;;23.71;49.12;101789.06;5093258;28;20034;-70
2022/07/24 04:01:09;;;;;;;6.97;4.38;;;;;;;23.70;49.29;101791.88;5094353;28;20028;-71
2022/07/24 04:03:35;;;;;;;6.13;4.47;;;;;;;23.70;49.20;101789.22;5093449;28;20020;-71
2022/07/24 04:06:05;;;;;;;5.68;3.95;;;;;;;23.69;48.99;101790.22;5093593;28;20542;-71
2022/07/24 04:08:31;;;;;;;5.95;4.60;;;;;;;23.68;49.23;101793.84;5093978;28;20027;-71
2022/07/24 04:10:56;;;;;;;5.63;4.00;;;;;;;23.67;49.09;101790.34;5094216;28;20056;-71
2022/07/24 04:13:26;;;;;;;6.90;4.32;;;;;;;23.68;49.35;101794.69;5093123;28;20094;-71
2022/07/24 04:15:53;;;;;;;5.60;4.40;;;;;;;23.68;49.35;101788.53;5093828;28;20032;-71
2022/07/24 04:18:18;;;;;;;5.50;4.10;;;;;;;23.68;49.28;101785.88;5094213;28;20043;-71
2022/07/24 04:20:43;;;;;;;5.43;4.20;;;;;;;23.68;49.33;101786.69;5093159;28;20031;-70
2022/07/24 04:23:08;;;;;;;6.53;4.53;;;;;;;23.67;49.21;101787.69;5094124;28;20376;-71
2022/07/24 04:25:34;;;;;;;5.47;4.40;;;;;;;23.70;49.30;101797.19;5093469;28;20075;-70
2022/07/24 04:28:00;;;;;;;5.70;4.15;;;;;;;23.71;49.28;101796.22;5093104;28;20027;-71
2022/07/24 04:30:25;;;;;;;6.57;4.70;;;;;;;23.70;49.25;101800.72;5093867;28;20024;-71
2022/07/24 04:32:51;;;;;;;6.40;5.20;;;;;;;23.71;49.15;101802.38;5093482;28;20082;-71
2022/07/24 04:35:22;;;;;;;5.88;4.30;;;;;;;23.72;49.13;101803.25;5093200;28;20097;-71
2022/07/24 04:37:48;;;;;;;6.72;5.07;;;;;;;23.71;48.80;101799.72;5093564;28;20388;-71
2022/07/24 04:40:13;;;;;;;7.53;4.97;;;;;;;23.72;49.17;101809.41;5092962;28;20024;-70
2022/07/24 04:42:39;;;;;;;6.35;4.70;;;;;;;23.72;48.85;101816.56;5093477;28;20027;-70
2022/07/24 04:45:09;;;;;;;7.05;5.15;;;;;;;23.73;49.41;101812.88;5093549;28;20032;-71
2022/07/24 04:47:35;;;;;;;5.85;4.50;;;;;;;23.74;48.78;101809.25;5092657;28;20391;-71
2022/07/24 04:50:01;;;;;;;6.20;4.80;;;;;;;23.73;49.20;101805.78;5093666;28;20434;-71
2022/07/24 04:52:26;;;;;;;5.95;4.72;;;;;;;23.74;48.90;101809.25;5093463;28;20024;-71
2022/07/24 04:54:51;;;;;;;6.60;4.75;;;;;;;23.75;49.23;101808.28;5092610;28;20051;-71
2022/07/24 04:57:17;;;;;;;7.10;5.28;;;;;;;23.76;48.83;101803.81;5093392;28;20484;-71
2022/07/24 04:59:45;;;;;;;6.93;4.95;;;;;;;23.77;49.09;101808.16;5092873;28;20076;-71
2022/07/24 05:02:10;;;;;;;7.15;5.35;;;;;;;23.72;48.93;101801.41;5092791;28;20024;-71
2022/07/24 05:04:35;;;;;;;6.15;4.88;;;;;;;23.77;48.91;101811.66;5093004;28;20027;-71
2022/07/24 05:07:02;;;;;;;6.82;5.10;;;;;;;23.77;49.31;101806.31;5093191;28;20020;-71
2022/07/24 05:09:28;;;;;;;6.40;5.10;;;;;;;23.78;49.36;101800.00;5092446;28;20020;-71
2022/07/24 05:11:53;;;;;;;7.57;4.93;;;;;;;23.79;49.38;101795.53;5093182;28;20464;-71
2022/07/24 05:14:19;;;;;;;6.97;4.90;;;;;;;23.80;49.28;101802.53;5091759;28;20079;-71
2022/07/24 05:16:46;;;;;;;7.03;5.40;;;;;;;23.80;49.39;101803.38;5092016;28;20019;-72
2022/07/24 05:19:12;;;;;;;8.10;5.10;;;;;;;23.79;49.43;101803.53;5093192;28;20023;-72
2022/07/24 05:21:37;;;;;;;6.95;5.45;;;;;;;23.79;49.07;101803.53;5092812;28;20468;-72
2022/07/24 05:24:05;;;;;;;6.90;5.25;;;;;;;23.80;49.35;101810.50;5092168;28;20020;-72
2022/07/24 05:26:31;;;;;;;7.45;5.30;;;;;;;23.80;49.04;101814.03;5092513;28;20528;-71
2022/07/24 05:29:01;;;;;;;7.43;5.32;;;;;;;23.80;49.25;101814.03;5092898;28;20032;-71
2022/07/24 05:31:26;;;;;;;7.32;5.40;;;;;;;23.82;49.54;101816.56;5092443;28;20016;-72
2022/07/24 05:33:53;;;;;;;6.65;5.30;;;;;;;23.81;49.17;101817.53;5092731;28;20137;-71
2022/07/24 05:36:18;;;;;;;6.85;5.25;;;;;;;23.83;49.63;101818.22;5092228;28;20153;-71
2022/07/24 05:38:44;;;;;;;7.07;5.40;;;;;;;23.83;49.39;101819.13;5092577;28;20103;-71
2022/07/24 05:41:11;;;;;;;6.35;5.15;;;;;;;23.85;49.69;101824.31;5092773;28;20023;-71
2022/07/24 05:43:37;;;;;;;7.93;5.35;;;;;;;23.84;49.23;101825.28;5091894;28;20128;-72
2022/07/24 05:46:04;;;;;;;6.40;5.50;;;;;;;23.84;49.51;101817.28;5092732;28;20124;-73
2022/07/24 05:48:29;;;;;;;7.40;5.65;;;;;;;23.83;49.71;101826.19;5092717;28;20028;-72
2022/07/24 05:50:57;;;;;;;7.38;5.55;;;;;;;23.83;49.52;101816.44;5091830;28;20027;-72
2022/07/24 05:53:29;;;;;;;7.90;5.95;;;;;;;23.84;49.28;101817.28;5092537;28;20016;-72
2022/07/24 05:55:54;;;;;;;6.40;5.35;;;;;;;23.83;49.59;101821.78;5092594;28;20031;-71
2022/07/24 05:58:23;;;;;;;6.97;5.75;;;;;;;23.85;49.38;101821.63;5092130;28;20020;-71
2022/07/24 06:00:48;;;;;;;7.78;5.55;;;;;;;23.83;49.37;101815.56;5092381;28;20379;-71
2022/07/24 06:03:19;;;;;;;6.93;5.40;;;;;;;23.85;49.66;101821.63;5092826;28;20032;-71
2022/07/24 06:05:44;;;;;;;6.05;4.93;;;;;;;23.85;49.39;101826.97;5091579;28;20034;-71
2022/07/24 06:08:10;;;;;;;6.90;5.40;;;;;;;23.87;49.19;101825.00;5092487;28;20379;-71
2022/07/24 06:10:35;;;;;;;8.00;5.38;;;;;;;23.84;49.51;101823.44;5092148;28;20027;-71
2022/07/24 06:13:03;;;;;;;8.15;5.38;;;;;;;23.89;49.77;101831.00;5091760;28;20420;-71
2022/07/24 06:15:29;;;;;;;6.00;4.72;;;;;;;23.90;49.47;101830.88;5092433;28;20126;-71
2022/07/24 06:17:54;;;;;;;7.20;5.43;;;;;;;23.90;49.52;101825.53;5092676;28;20104;-71
2022/07/24 06:20:19;;;;;;;5.93;4.80;;;;;;;23.90;49.66;101836.19;5091861;28;20028;-71
2022/07/24 06:22:48;;;;;;;7.13;4.90;;;;;;;23.90;49.44;101835.38;5091992;28;20039;-71
2022/07/24 06:25:14;;;;;;;7.68;5.30;;;;;;;23.92;49.75;101844.03;5093346;28;20107;-68
2022/07/24 06:27:53;;;;;;;16.80;13.52;;;;;;;23.76;49.77;101827.75;5095385;28;20016;-68
2022/07/24 06:30:24;;;;;;;15.85;13.65;;;;;;;23.50;49.92;101828.28;5096114;28;20027;-68
2022/07/24 06:32:52;;;;;;;15.48;13.02;;;;;;;23.28;50.92;101824.84;5095004;28;20031;-68
2022/07/24 06:35:18;;;;;;;17.85;13.73;;;;;;;23.07;51.74;101830.19;5095994;28;20034;-67
2022/07/24 06:37:43;;;;;;;17.27;14.25;;;;;;;22.92;51.94;101835.03;5095723;28;20107;-68
2022/07/24 06:40:09;;;;;;;15.35;12.88;;;;;;;22.73;52.20;101834.91;5094543;28;20090;-68
2022/07/24 06:42:34;;;;;;;15.23;11.82;;;;;;;22.56;52.61;101836.38;5095644;28;20089;-69
2022/07/24 06:45:00;;;;;;;16.83;12.27;;;;;;;22.49;53.42;101827.22;5096047;28;20028;-70
2022/07/24 06:47:26;;;;;;;15.10;11.90;;;;;;;22.43;53.00;101825.91;5095219;28;20110;-65
2022/07/24 06:49:53;;;;;;;16.25;11.70;;;;;;;22.37;52.91;101824.66;5095616;28;20023;-66
2022/07/24 06:52:18;;;;;;;15.50;12.35;;;;;;;22.32;52.70;101826.84;5096010;28;20115;-68
2022/07/24 06:54:46;;;;;;;15.48;12.20;;;;;;;22.32;53.11;101829.50;5094669;28;20539;-68
2022/07/24 06:57:14;;;;;;;14.07;11.75;;;;;;;22.28;53.21;101823.56;5095676;28;20031;-67
2022/07/24 06:59:40;;;;;;;14.13;10.88;;;;;;;22.27;53.30;101818.38;5095546;28;20020;-69
2022/07/24 07:02:05;;;;;;;12.45;10.07;;;;;;;22.31;52.89;101821.66;5094955;28;20161;-70
2022/07/24 07:04:33;;;;;;;13.57;9.85;;;;;;;22.34;52.97;101813.44;5095529;28;20093;-69
2022/07/24 07:06:58;;;;;;;10.93;9.23;;;;;;;22.36;53.23;101807.00;5095871;28;20027;-70
2022/07/24 07:09:24;;;;;;;10.53;8.97;;;;;;;22.42;52.77;101811.81;5095020;28;20103;-69
2022/07/24 07:11:49;;;;;;;9.57;8.27;;;;;;;22.45;53.03;101814.22;5095357;28;20346;-70
2022/07/24 07:14:15;;;;;;;11.07;7.57;;;;;;;22.40;52.22;101802.31;5094507;28;20180;-70
2022/07/24 07:16:40;;;;;;;8.23;6.53;;;;;;;22.49;51.95;101817.44;5094440;28;20077;-69
2022/07/24 07:19:05;;;;;;;8.53;5.80;;;;;;;22.55;50.98;101818.75;5095406;28;20269;-70
2022/07/24 07:21:31;;;;;;;7.95;5.57;;;;;;;22.63;50.84;101834.88;5095104;28;20620;-69
2022/07/24 07:23:56;;;;;;;6.93;5.07;;;;;;;22.72;49.63;101828.78;5093169;28;20614;-69
2022/07/24 07:26:21;;;;;;;9.13;4.90;;;;;;;22.86;49.52;101829.38;5095172;28;20024;-71
2022/07/24 07:28:49;;;;;;;8.35;4.78;;;;;;;22.95;49.32;101828.59;5094385;28;20114;-69
2022/07/24 07:31:15;;;;;;;6.50;4.57;;;;;;;23.03;48.89;101833.25;5095116;28;20513;-69
2022/07/24 07:33:40;;;;;;;6.20;4.05;;;;;;;23.10;48.41;101826.47;5094776;28;20048;-67
2022/07/24 07:36:08;;;;;;;6.32;3.85;;;;;;;23.15;48.37;101821.59;5093959;28;20375;-68
2022/07/24 07:38:35;;;;;;;6.75;3.90;;;;;;;23.16;47.98;101824.13;5094186;28;20127;-69
2022/07/24 07:41:00;;;;;;;5.60;3.67;;;;;;;23.15;47.62;101829.56;5094223;28;20377;-68
2022/07/24 07:43:25;;;;;;;7.53;3.60;;;;;;;23.16;47.18;101823.25;5093970;28;20479;-67
2022/07/24 07:45:53;;;;;;;6.07;3.70;;;;;;;23.20;47.73;101813.22;5094629;28;20024;-69
2022/07/24 07:48:19;;;;;;;6.43;3.17;;;;;;;23.28;47.44;101824.00;5094767;28;20353;-69
2022/07/24 07:50:47;;;;;;;5.77;3.40;;;;;;;23.36;47.02;101827.66;5093878;28;20031;-67
2022/07/24 07:53:12;;;;;;;5.43;3.50;;;;;;;23.41;46.28;101807.81;5094835;28;20261;-71
2022/07/24 07:55:38;;;;;;;4.45;2.95;;;;;;;23.44;44.93;101821.66;5094457;28;20377;-67
2022/07/24 07:58:03;;;;;;;4.25;2.40;;;;;;;23.45;44.54;101815.38;5093839;28;20387;-68
2022/07/24 08:00:29;;;;;;;4.22;2.40;;;;;;;23.48;43.61;101812.44;5094461;28;20467;-69
2022/07/24 08:02:54;;;;;;;4.45;2.92;;;;;;;23.55;44.12;101810.06;5094519;28;20100;-70
2022/07/24 08:05:20;;;;;;;7.27;4.07;;;;;;;23.61;44.80;101819.34;5094081;28;20121;-66
2022/07/24 08:07:48;;;;;;;4.72;3.05;;;;;;;23.66;45.12;101811.78;5094089;28;20284;-66
2022/07/24 08:10:13;;;;;;;4.35;2.75;;;;;;;23.71;44.96;101810.38;5094352;28;20039;-68
2022/07/24 08:12:38;;;;;;;4.82;2.35;;;;;;;23.78;44.79;101807.16;5093541;28;20028;-69
2022/07/24 08:15:08;;;;;;;4.00;2.40;;;;;;;23.83;44.02;101813.78;5094168;28;20048;-69
2022/07/24 08:17:36;;;;;;;6.20;2.42;;;;;;;23.87;43.42;101809.84;5093867;28;20032;-69
2022/07/24 08:20:01;;;;;;;5.05;2.25;;;;;;;23.96;43.24;101815.31;5093875;28;20031;-67
2022/07/24 08:22:26;;;;;;;4.70;2.43;;;;;;;24.00;42.79;101817.56;5094548;28;20475;-70
2022/07/24 08:24:52;;;;;;;3.88;2.33;;;;;;;24.03;42.95;101814.63;5094079;28;20264;-70
2022/07/24 08:27:17;;;;;;;4.10;1.80;;;;;;;24.02;42.89;101812.97;5093591;28;20016;-70
2022/07/24 08:29:45;;;;;;;4.28;2.00;;;;;;;24.03;43.91;101814.63;5093697;28;20364;-70
2022/07/24 08:32:10;;;;;;;3.67;2.13;;;;;;;24.05;43.46;101818.00;5093178;28;20059;-70
2022/07/24 08:34:36;;;;;;;4.80;2.60;;;;;;;24.06;43.64;101817.00;5093838;28;20060;-70
2022/07/24 08:37:01;;;;;;;3.90;2.40;;;;;;;24.11;43.83;101823.72;5093835;28;20497;-70
2022/07/24 08:39:29;;;;;;;4.32;2.30;;;;;;;24.15;43.39;101822.44;5093444;28;20039;-70
2022/07/24 08:41:55;;;;;;;4.45;2.22;;;;;;;24.16;43.11;101810.84;5093929;28;20035;-72
2022/07/24 08:44:20;;;;;;;4.35;2.33;;;;;;;24.21;43.87;101813.91;5093949;28;20028;-72
2022/07/24 08:46:45;;;;;;;3.87;2.13;;;;;;;24.26;43.86;101812.50;5092757;28;20024;-70
2022/07/24 08:49:15;;;;;;;5.30;2.30;;;;;;;24.32;44.01;101808.41;5093781;28;20322;-68
2022/07/24 08:51:42;;;;;;;3.72;2.20;;;;;;;24.37;44.49;101805.34;5093367;28;20031;-67
2022/07/24 08:54:12;;;;;;;4.45;2.10;;;;;;;24.42;43.89;101803.94;5092707;28;20067;-68
2022/07/24 08:56:42;;;;;;;5.25;2.22;;;;;;;24.47;44.48;101800.84;5093209;28;20148;-69
2022/07/24 08:59:22;;;;;;;3.50;2.00;;;;;;;24.51;44.42;101798.72;5093306;28;20558;-70
2022/07/24 09:01:48;;;;;;;4.25;2.00;;;;;;;24.55;44.47;101808.94;5092554;28;20036;-71
2022/07/24 09:04:33;;;;;;;4.57;2.47;;;;;;;24.58;44.45;101807.88;5093372;28;20057;-69
2022/07/24 09:07:00;;;;;;;4.35;2.50;;;;;;;24.61;44.47;101799.59;5093273;28;20028;-68
2022/07/24 09:09:25;;;;;;;4.00;2.20;;;;;;;24.58;44.39;101795.38;5092429;28;20042;-67
2022/07/24 09:12:09;;;;;;;4.03;2.30;;;;;;;24.65;44.68;101808.94;5092932;28;20472;-66
2022/07/24 09:14:38;;;;;;;4.15;2.00;;;;;;;24.67;45.08;101801.63;5091874;28;20040;-66
2022/07/24 09:17:07;;;;;;;3.85;2.10;;;;;;;24.68;44.70;101803.34;5093094;28;20119;-66
2022/07/24 09:19:49;;;;;;;3.75;2.00;;;;;;;24.69;44.90;101796.16;5092898;28;20062;-70
2022/07/24 09:22:29;;;;;;;7.47;2.22;;;;;;;24.69;45.27;101788.16;5092252;28;20024;-71
2022/07/24 09:25:15;;;;;;;4.68;2.00;;;;;;;24.70;45.06;101790.69;5093179;28;20110;-69
2022/07/24 09:27:44;;;;;;;4.75;2.35;;;;;;;24.72;45.18;101780.75;5092732;28;20032;-68
2022/07/24 09:30:25;;;;;;;4.85;1.90;;;;;;;24.72;45.10;101786.06;5092618;28;20345;-69
2022/07/24 09:32:59;;;;;;;5.60;2.00;;;;;;;24.75;45.46;101779.59;5092744;28;20035;-73
2022/07/24 09:35:31;;;;;;;4.53;2.00;;;;;;;24.75;45.24;101776.94;5092399;28;20107;-72
2022/07/24 09:37:58;;;;;;;4.53;2.10;;;;;;;24.69;45.54;101769.50;5092812;28;20055;-73
2022/07/24 09:40:39;;;;;;;3.90;2.10;;;;;;;24.68;45.78;101775.84;5092968;28;20035;-69
2022/07/24 09:43:32;;;;;;;5.00;2.20;;;;;;;24.69;46.01;101774.84;5092098;28;20020;-70
2022/07/24 09:46:05;;;;;;;5.60;2.00;;;;;;;24.71;45.72;101764.91;5092874;28;20505;-69
2022/07/24 09:48:41;;;;;;;4.53;2.30;;;;;;;24.77;45.88;101769.66;5091460;28;20039;-71
2022/07/24 09:51:10;;;;;;;4.05;2.00;;;;;;;24.77;45.42;101772.31;5092038;28;20116;-70
2022/07/24 09:53:36;;;;;;;3.95;2.20;;;;;;;24.74;46.24;101767.28;5092433;28;20118;-70
2022/07/24 09:56:05;;;;;;;5.32;2.45;;;;;;;24.71;45.78;101767.56;5092740;28;20043;-67
2022/07/24 09:58:32;;;;;;;4.10;2.00;;;;;;;24.71;45.78;101763.06;5091856;28;20024;-70
2022/07/24 10:01:00;;;;;;;4.55;1.95;;;;;;;24.75;45.83;101763.59;5094961;28;20028;-70
2022/07/24 10:03:27;;;;;;;5.32;1.80;;;;;;;24.77;45.69;101764.31;5096881;28;20035;-69
2022/07/24 10:05:55;;;;;;;5.35;1.98;;;;;;;24.77;45.76;101751.00;5095601;28;20479;-70
2022/07/24 10:08:21;;;;;;;4.72;2.13;;;;;;;24.84;45.84;101756.56;5096765;28;20109;-70
2022/07/24 10:10:48;;;;;;;3.85;2.15;;;;;;;24.86;45.91;101754.59;5095779;28;20028;-70
2022/07/24 10:13:14;;;;;;;4.93;2.10;;;;;;;24.90;45.56;101748.81;5096414;28;20149;-69
2022/07/24 10:15:52;;;;;;;3.80;1.83;;;;;;;24.92;45.88;101752.16;5096272;28;20099;-72
2022/07/24 10:18:19;;;;;;;4.20;2.40;;;;;;;24.90;46.23;101754.13;5095760;28;20387;-69
2022/07/24 10:20:46;;;;;;;4.10;2.03;;;;;;;24.92;45.83;101746.81;5096209;28;20055;-69
2022/07/24 10:23:20;;;;;;;5.25;1.90;;;;;;;24.97;46.03;101746.38;5096626;28;20020;-68
2022/07/24 10:26:03;;;;;;;4.95;2.35;;;;;;;24.99;45.92;101737.25;5095315;28;20032;-68
2022/07/24 10:28:37;;;;;;;5.05;2.20;;;;;;;25.02;45.57;101740.59;5096307;28;20111;-67
2022/07/24 10:31:05;;;;;;;4.72;2.00;;;;;;;25.02;45.85;101737.94;5096125;28;20486;-67
2022/07/24 10:33:34;;;;;;;3.45;1.85;;;;;;;24.99;45.82;101737.25;5094949;28;20471;-67
2022/07/24 10:36:03;;;;;;;4.68;2.13;;;;;;;24.99;45.70;101733.72;5096061;28;20459;-67
2022/07/24 10:38:41;;;;;;;3.92;2.00;;;;;;;24.95;45.85;101722.53;5095548;28;20383;-65
2022/07/24 10:41:14;;;;;;;4.28;2.05;;;;;;;24.99;45.71;101723.06;5095939;28;20050;-67
2022/07/24 10:43:40;;;;;;;4.15;1.95;;;;;;;25.00;45.94;101727.41;5095951;28;20039;-71
2022/07/24 10:46:05;;;;;;;5.05;2.10;;;;;;;24.95;46.18;101727.03;5095315;28;20102;-69
2022/07/24 10:48:41;;;;;;;5.55;2.10;;;;;;;24.91;46.25;101726.50;5095616;28;20035;-67
2022/07/24 10:51:13;;;;;;;5.90;2.15;;;;;;;24.90;46.13;101716.81;5096051;28;20024;-65
2022/07/24 10:53:38;;;;;;;4.85;1.90;;;;;;;24.93;46.10;101713.03;5094661;28;20050;-66
2022/07/24 10:56:25;;;;;;;3.13;1.90;;;;;;;24.94;46.38;101707.53;5095930;28;20031;-66
2022/07/24 10:59:09;;;;;;;3.67;2.03;;;;;;;24.98;46.53;101713.41;5095563;28;20016;-68
2022/07/24 11:01:37;;;;;;;4.30;2.40;;;;;;;24.97;46.68;101706.38;5094695;28;20024;-67
2022/07/24 11:04:23;;;;;;;5.07;2.22;;;;;;;24.92;46.63;101712.16;5095465;28;20028;-68
2022/07/24 11:07:00;;;;;;;4.20;2.20;;;;;;;24.88;46.95;101701.94;5094979;28;20032;-68
2022/07/24 11:09:27;;;;;;;5.22;2.30;;;;;;;24.91;46.81;101705.19;5095548;28;20023;-68
2022/07/24 11:11:52;;;;;;;4.72;2.38;;;;;;;24.90;46.91;101700.00;5093862;28;20020;-68
2022/07/24 11:14:22;;;;;;;5.90;2.50;;;;;;;24.88;46.89;101696.63;5094350;28;20059;-69
2022/07/24 11:16:50;;;;;;;5.43;2.53;;;;;;;24.87;46.67;101701.13;5094816;28;20503;-68
2022/07/24 11:19:16;;;;;;;5.25;2.45;;;;;;;24.87;46.72;101711.78;5095470;28;20028;-69
2022/07/24 11:21:43;;;;;;;6.17;2.40;;;;;;;24.89;46.94;101711.63;5094316;28;20032;-68
2022/07/24 11:24:35;;;;;;;7.93;2.67;;;;;;;24.89;46.89;101708.97;5095197;28;20141;-70